createdAt,value
2022-12-19T00:00:50.012Z,23.16
2022-12-19T00:03:28.093Z,23.15
2022-12-19T00:05:56.476Z,23.14
2022-12-19T00:08:24.603Z,23.13
2022-12-19T00:10:59.381Z,23.11
2022-12-19T00:13:29.547Z,23.09
2022-12-19T00:16:08.827Z,23.07
2022-12-19T00:18:39.877Z,23.04
2022-12-19T00:21:08.752Z,23.03
2022-12-19T00:23:37.288Z,23.02
2022-12-19T00:26:17.613Z,23.01
2022-12-19T00:28:52.352Z,22.99
2022-12-19T00:31:22.848Z,22.97
2022-12-19T00:33:51.862Z,22.95
2022-12-19T00:36:24.130Z,22.92
2022-12-19T00:38:55.575Z,22.90
2022-12-19T00:41:33.481Z,22.87
2022-12-19T00:44:07.832Z,22.86
2022-12-19T00:46:36.999Z,22.83
2022-12-19T00:49:06.264Z,22.82
2022-12-19T00:51:37.339Z,22.79
2022-12-19T00:54:07.260Z,22.78
2022-12-19T00:56:37.981Z,22.77
2022-12-19T00:59:09.258Z,22.74
2022-12-19T01:01:41.671Z,22.72
2022-12-19T01:04:31.225Z,22.71
2022-12-19T01:07:03.144Z,22.68
2022-12-19T01:09:37.220Z,22.66
2022-12-19T01:12:25.113Z,22.64
2022-12-19T01:15:04.514Z,22.61
2022-12-19T01:17:44.085Z,22.59
2022-12-19T01:20:26.190Z,22.57
2022-12-19T01:23:00.163Z,22.55
2022-12-19T01:25:29.556Z,22.53
2022-12-19T01:27:57.969Z,22.51
2022-12-19T01:30:27.690Z,22.50
2022-12-19T01:32:58.819Z,22.48
2022-12-19T01:35:28.757Z,22.46
2022-12-19T01:38:07.935Z,22.43
2022-12-19T01:40:37.783Z,22.42
2022-12-19T01:43:12.726Z,22.40
2022-12-19T01:45:45.943Z,22.38
2022-12-19T01:48:44.431Z,22.37
2022-12-19T01:51:22.903Z,22.34
2022-12-19T01:54:04.394Z,22.33
2022-12-19T01:56:38.993Z,22.31
2022-12-19T01:59:14.433Z,22.30
2022-12-19T02:01:51.066Z,22.28
2022-12-19T02:04:32.182Z,22.27
2022-12-19T02:07:15.075Z,22.26
2022-12-19T02:09:49.602Z,22.24
2022-12-19T02:12:26.574Z,22.23
2022-12-19T02:15:00.927Z,22.22
2022-12-19T02:17:45.205Z,22.21
2022-12-19T02:20:29.404Z,22.20
2022-12-19T02:23:24.615Z,22.18
2022-12-19T02:26:53.433Z,22.16
2022-12-19T02:29:53.775Z,22.13
2022-12-19T02:32:52.974Z,22.12
2022-12-19T02:36:12.560Z,22.10
2022-12-19T02:38:50.968Z,22.09
2022-12-19T02:41:23.956Z,22.07
2022-12-19T02:43:58.896Z,22.06
2022-12-19T02:46:29.580Z,22.05
2022-12-19T02:48:59.318Z,22.04
2022-12-19T02:51:27.513Z,22.03
2022-12-19T02:53:55.585Z,22.02
2022-12-19T02:56:55.000Z,22.01
2022-12-19T02:59:53.957Z,22.00
2022-12-19T03:02:53.846Z,21.99
2022-12-19T03:06:23.854Z,22.00
2022-12-19T03:09:30.414Z,22.06
2022-12-19T03:12:14.095Z,22.13
2022-12-19T03:14:47.978Z,22.19
2022-12-19T03:17:19.486Z,22.24
2022-12-19T03:19:48.610Z,22.28
2022-12-19T03:22:16.746Z,22.32
2022-12-19T03:24:44.965Z,22.34
2022-12-19T03:27:24.317Z,22.37
2022-12-19T03:30:05.171Z,22.38
2022-12-19T03:32:36.602Z,22.40
2022-12-19T03:35:17.185Z,22.42
2022-12-19T03:37:48.028Z,22.42
2022-12-19T03:40:22.343Z,22.43
2022-12-19T03:43:11.920Z,22.43
2022-12-19T03:46:25.995Z,22.43
2022-12-19T03:48:55.209Z,22.43
2022-12-19T03:51:59.231Z,22.42
2022-12-19T03:54:33.084Z,22.41
2022-12-19T03:57:07.819Z,22.37
2022-12-19T04:00:04.547Z,22.33
2022-12-19T04:02:45.745Z,22.24
2022-12-19T04:05:20.131Z,22.22
2022-12-19T04:07:50.284Z,22.23
2022-12-19T04:10:22.662Z,22.22
2022-12-19T04:13:00.269Z,22.21
2022-12-19T04:15:54.389Z,22.22
2022-12-19T04:18:23.498Z,22.25
2022-12-19T04:21:02.559Z,22.28
2022-12-19T04:23:39.229Z,22.32
2022-12-19T04:26:08.844Z,22.35
2022-12-19T04:28:54.680Z,22.38
2022-12-19T04:31:23.964Z,22.41
2022-12-19T04:33:52.203Z,22.44
2022-12-19T04:36:20.344Z,22.47
2022-12-19T04:38:48.868Z,22.49
2022-12-19T04:41:17.137Z,22.52
2022-12-19T04:43:45.317Z,22.55
2022-12-19T04:46:13.417Z,22.56
2022-12-19T04:48:41.573Z,22.59
2022-12-19T04:51:10.243Z,22.61
2022-12-19T04:53:38.422Z,22.64
2022-12-19T04:56:07.609Z,22.68
2022-12-19T04:58:35.991Z,22.73
2022-12-19T05:01:07.086Z,22.80
2022-12-19T05:03:37.077Z,22.85
2022-12-19T05:06:14.950Z,22.90
2022-12-19T05:08:44.202Z,22.96
2022-12-19T05:11:19.396Z,23.00
2022-12-19T05:13:50.127Z,23.05
2022-12-19T05:16:18.928Z,23.08
2022-12-19T05:18:47.444Z,23.11
2022-12-19T05:21:15.540Z,23.14
2022-12-19T05:23:43.714Z,23.18
2022-12-19T05:26:12.295Z,23.23
2022-12-19T05:28:40.429Z,23.27
2022-12-19T05:31:13.753Z,23.31
2022-12-19T05:33:42.986Z,23.34
2022-12-19T05:36:14.058Z,23.37
2022-12-19T05:38:42.863Z,23.37
2022-12-19T05:41:18.893Z,23.36
2022-12-19T05:43:54.701Z,23.33
2022-12-19T05:46:24.306Z,23.27
2022-12-19T05:48:53.136Z,23.23
2022-12-19T05:51:22.088Z,23.17
2022-12-19T05:53:50.412Z,23.13
2022-12-19T05:56:22.070Z,23.07
2022-12-19T05:58:50.839Z,23.02
2022-12-19T06:01:24.045Z,23.02
2022-12-19T06:03:54.115Z,22.98
2022-12-19T06:06:26.229Z,22.94
2022-12-19T06:08:58.753Z,22.91
2022-12-19T06:11:27.698Z,22.92
2022-12-19T06:13:55.971Z,22.93
2022-12-19T06:16:24.799Z,22.94
2022-12-19T06:18:53.203Z,22.96
2022-12-19T06:21:23.765Z,22.97
2022-12-19T06:23:52.016Z,22.80
2022-12-19T06:26:22.603Z,22.81
2022-12-19T06:28:52.853Z,22.84
2022-12-19T06:31:24.135Z,22.62
2022-12-19T06:33:52.988Z,22.36
2022-12-19T06:36:30.322Z,22.43
2022-12-19T06:38:59.013Z,22.46
2022-12-19T06:41:46.293Z,22.49
2022-12-19T06:44:17.144Z,22.50
2022-12-19T06:46:45.332Z,22.52
2022-12-19T06:49:13.929Z,22.23
2022-12-19T06:51:42.508Z,22.24
2022-12-19T06:54:12.461Z,22.24
2022-12-19T06:56:43.143Z,22.23
2022-12-19T06:59:16.558Z,22.20
2022-12-19T07:02:00.825Z,22.16
2022-12-19T07:04:51.876Z,22.11
2022-12-19T07:07:20.182Z,22.09
2022-12-19T07:09:49.006Z,22.05
2022-12-19T07:12:17.247Z,22.02
2022-12-19T07:14:50.236Z,22.00
2022-12-19T07:17:24.764Z,21.98
2022-12-19T07:19:58.094Z,21.96
2022-12-19T07:22:31.962Z,21.93
2022-12-19T07:25:02.700Z,21.90
2022-12-19T07:27:35.697Z,21.88
2022-12-19T07:30:07.952Z,21.86
2022-12-19T07:32:36.670Z,21.84
2022-12-19T07:35:07.000Z,21.81
2022-12-19T07:37:35.583Z,21.78
2022-12-19T07:40:04.963Z,21.76
2022-12-19T07:42:34.257Z,21.74
2022-12-19T07:45:02.932Z,21.73
2022-12-19T07:47:31.522Z,21.72
2022-12-19T07:49:59.808Z,21.75
2022-12-19T07:52:28.276Z,21.75
2022-12-19T07:54:56.453Z,21.78
2022-12-19T07:57:24.627Z,21.78
2022-12-19T07:59:53.102Z,21.79
2022-12-19T08:02:21.559Z,21.80
2022-12-19T08:04:50.966Z,21.80
2022-12-19T08:07:19.264Z,21.82
2022-12-19T08:09:47.542Z,21.83
2022-12-19T08:12:17.018Z,21.80
2022-12-19T08:14:45.339Z,21.79
2022-12-19T08:17:21.390Z,21.81
2022-12-19T08:19:49.999Z,21.80
2022-12-19T08:22:18.240Z,21.79
2022-12-19T08:24:46.390Z,21.78
2022-12-19T08:27:17.176Z,21.72
2022-12-19T08:29:45.351Z,21.56
2022-12-19T08:32:20.465Z,21.61
2022-12-19T08:34:50.521Z,21.61
2022-12-19T08:37:18.691Z,21.60
2022-12-19T08:39:46.940Z,21.58
2022-12-19T08:42:15.024Z,21.61
2022-12-19T08:44:43.279Z,21.62
2022-12-19T08:47:11.429Z,21.64
2022-12-19T08:49:39.649Z,21.67
2022-12-19T08:52:08.143Z,21.69
2022-12-19T08:54:36.714Z,21.71
2022-12-19T08:57:04.914Z,21.72
2022-12-19T08:59:33.100Z,21.73
2022-12-19T09:02:02.530Z,21.74
2022-12-19T09:06:00.116Z,21.76
2022-12-19T09:07:19.277Z,21.77
2022-12-19T09:09:47.484Z,21.78
2022-12-19T09:12:18.392Z,21.77
2022-12-19T09:14:46.972Z,21.77
2022-12-19T09:17:15.396Z,21.77
2022-12-19T09:19:47.500Z,21.77
2022-12-19T09:22:16.957Z,21.77
2022-12-19T09:24:45.920Z,21.78
2022-12-19T09:27:17.869Z,21.78
2022-12-19T09:29:51.952Z,21.78
2022-12-19T09:32:20.297Z,21.79
2022-12-19T09:34:48.378Z,21.78
2022-12-19T09:37:17.859Z,21.80
2022-12-19T09:39:47.681Z,21.82
2022-12-19T09:42:21.932Z,21.82
2022-12-19T09:45:10.534Z,21.84
2022-12-19T09:47:47.259Z,21.84
2022-12-19T09:50:31.753Z,21.83
2022-12-19T09:53:13.251Z,21.84
2022-12-19T09:55:42.754Z,21.84
2022-12-19T09:58:54.219Z,21.85
2022-12-19T10:01:30.916Z,21.87
2022-12-19T10:04:13.059Z,21.90
2022-12-19T10:07:09.003Z,21.91
2022-12-19T10:11:13.994Z,21.85
2022-12-19T10:12:51.924Z,21.80
2022-12-19T10:15:46.181Z,21.78
2022-12-19T10:18:57.033Z,21.77
2022-12-19T10:22:17.269Z,21.79
2022-12-19T10:25:17.414Z,21.85
2022-12-19T10:28:35.996Z,21.91
2022-12-19T10:31:33.010Z,21.98
2022-12-19T10:34:38.707Z,22.04
2022-12-19T10:37:40.880Z,22.09
2022-12-19T10:40:28.623Z,22.16
2022-12-19T10:43:22.878Z,22.22
2022-12-19T10:45:59.663Z,22.29
2022-12-19T10:48:31.295Z,22.35
2022-12-19T10:51:00.677Z,22.41
2022-12-19T10:53:35.132Z,22.48
2022-12-19T10:56:20.702Z,22.54
2022-12-19T10:58:57.455Z,22.61
2022-12-19T11:01:36.180Z,22.67
2022-12-19T11:04:30.211Z,22.74
2022-12-19T11:07:07.588Z,22.82
2022-12-19T11:09:41.875Z,22.89
2022-12-19T11:14:28.168Z,22.97
2022-12-19T11:21:07.240Z,23.06
2022-12-19T11:27:37.709Z,23.16
2022-12-19T11:29:32.936Z,23.25
2022-12-19T11:30:09.923Z,23.33
2022-12-19T11:30:38.648Z,23.42
2022-12-19T11:32:44.230Z,23.59
2022-12-19T11:35:24.686Z,23.68
2022-12-19T11:37:57.379Z,23.76
2022-12-19T11:40:51.070Z,23.84
2022-12-19T11:43:46.681Z,23.93
2022-12-19T11:46:40.498Z,24.01
2022-12-19T11:49:35.133Z,24.10
2022-12-19T11:55:56.138Z,24.26
2022-12-19T11:58:31.256Z,24.32
2022-12-19T12:01:20.769Z,24.33
2022-12-19T12:04:19.307Z,24.32
2022-12-19T12:06:56.625Z,24.30
2022-12-19T12:15:03.510Z,24.29
2022-12-19T12:22:34.791Z,24.28
2022-12-19T12:31:09.270Z,24.27
2022-12-19T12:31:11.703Z,24.26
2022-12-19T12:31:40.359Z,24.21
2022-12-19T12:31:40.925Z,24.24
2022-12-19T12:32:00.732Z,24.23
2022-12-19T12:35:51.511Z,24.17
2022-12-19T12:38:36.076Z,24.11
2022-12-19T12:41:07.845Z,24.09
2022-12-19T12:44:00.811Z,24.05
2022-12-19T12:46:39.939Z,24.03
2022-12-19T12:49:59.159Z,24.00
2022-12-19T12:52:55.580Z,23.96
2022-12-19T12:55:41.424Z,23.92
2022-12-19T12:58:54.479Z,23.89
2022-12-19T13:01:28.598Z,23.86
2022-12-19T13:04:02.724Z,23.83
2022-12-19T13:06:39.910Z,23.80
2022-12-19T13:09:20.062Z,23.77
2022-12-19T13:12:13.163Z,23.75
2022-12-19T13:14:46.745Z,23.73
2022-12-19T13:17:24.192Z,23.70
2022-12-19T13:20:17.957Z,23.68
2022-12-19T13:22:58.802Z,23.68
2022-12-19T13:25:27.037Z,23.64
2022-12-19T13:28:33.684Z,23.59
2022-12-19T13:31:15.477Z,23.59
2022-12-19T13:33:56.232Z,23.61
2022-12-19T13:39:49.683Z,23.62
2022-12-19T13:40:10.858Z,23.62
2022-12-19T13:43:25.077Z,23.58
2022-12-19T13:46:03.035Z,23.56
2022-12-19T13:48:41.644Z,23.53
2022-12-19T13:51:12.515Z,23.50
2022-12-19T13:53:43.359Z,23.47
2022-12-19T13:56:18.110Z,23.45
2022-12-19T13:58:58.162Z,23.46
2022-12-19T14:01:38.479Z,23.47
2022-12-19T14:04:12.144Z,23.43
2022-12-19T14:06:54.253Z,23.45
2022-12-19T14:11:33.442Z,23.46
2022-12-19T14:13:57.670Z,23.44
2022-12-19T14:15:52.511Z,23.41
2022-12-19T14:18:42.688Z,23.40
2022-12-19T14:22:04.466Z,23.39
2022-12-19T14:24:21.842Z,23.39
2022-12-19T14:28:18.954Z,23.38
2022-12-19T14:30:30.292Z,23.36
2022-12-19T14:33:45.213Z,23.35
2022-12-19T14:36:09.090Z,23.34
2022-12-19T14:39:24.940Z,23.34
2022-12-19T14:41:48.220Z,23.34
2022-12-19T14:52:25.971Z,23.37
2022-12-19T14:55:41.771Z,23.58
2022-12-19T14:58:51.531Z,23.57
2022-12-19T15:01:09.225Z,23.57
2022-12-19T15:03:35.331Z,23.56
2022-12-19T15:07:06.042Z,23.57
2022-12-19T15:10:59.640Z,23.58
2022-12-19T15:14:55.228Z,23.60
2022-12-19T18:46:51.855Z,22.43
2022-12-19T18:49:20.649Z,22.43
2022-12-19T18:51:52.710Z,22.48
2022-12-19T18:54:22.614Z,22.56
2022-12-19T18:56:52.011Z,22.62
2022-12-19T18:59:21.618Z,22.68
2022-12-19T19:01:50.202Z,22.73
2022-12-19T19:04:19.883Z,22.79
2022-12-19T19:06:52.267Z,22.84
2022-12-19T19:09:21.824Z,22.87
2022-12-19T19:11:50.088Z,22.90
2022-12-19T19:14:18.166Z,22.92
2022-12-19T19:16:46.371Z,22.94
2022-12-19T19:19:18.436Z,22.94
2022-12-19T19:21:46.781Z,22.96
2022-12-19T19:24:21.831Z,22.96
2022-12-19T19:26:50.182Z,22.98
2022-12-19T19:29:19.815Z,22.98
2022-12-19T19:31:51.352Z,22.98
2022-12-19T19:34:31.812Z,22.96
2022-12-19T19:37:03.980Z,22.96
2022-12-19T19:39:34.308Z,22.94
2022-12-19T19:42:02.990Z,22.94
2022-12-19T19:44:31.267Z,22.93
2022-12-19T19:46:59.833Z,22.92
2022-12-19T19:49:28.240Z,22.91
2022-12-19T19:52:02.160Z,22.89
2022-12-19T19:54:32.398Z,22.86
2022-12-19T19:57:00.944Z,22.83
2022-12-19T19:59:31.379Z,22.82
2022-12-19T20:01:59.897Z,22.80
2022-12-19T20:04:28.237Z,22.79
2022-12-19T20:06:56.610Z,22.77
2022-12-19T20:09:24.786Z,22.77
2022-12-19T20:11:52.965Z,22.78
2022-12-19T20:14:21.126Z,22.82
2022-12-19T20:16:50.731Z,22.87
2022-12-19T20:19:19.066Z,22.91
2022-12-19T20:21:47.316Z,22.95
2022-12-19T20:24:15.473Z,22.99
2022-12-19T20:26:43.747Z,23.02
2022-12-19T20:29:11.933Z,23.06
2022-12-19T20:31:41.508Z,23.10
2022-12-19T20:34:09.991Z,23.14
2022-12-19T20:36:38.181Z,23.16
2022-12-19T20:39:06.737Z,23.18
2022-12-19T20:41:35.351Z,23.20
2022-12-19T20:44:03.837Z,23.21
2022-12-19T20:46:32.168Z,23.22
2022-12-19T20:49:00.879Z,23.21
2022-12-19T20:51:29.022Z,23.21
2022-12-19T20:53:57.239Z,23.21
2022-12-19T20:56:26.097Z,23.20
2022-12-19T20:58:54.713Z,23.19
2022-12-19T21:01:25.404Z,23.18
2022-12-19T21:03:53.871Z,23.17
2022-12-19T21:06:27.406Z,23.15
2022-12-19T21:08:57.134Z,23.14
2022-12-19T21:11:26.598Z,23.12
2022-12-19T21:13:54.829Z,23.10
2022-12-19T21:16:23.754Z,23.07
2022-12-19T21:18:52.176Z,23.05
2022-12-19T21:21:26.162Z,23.03
2022-12-19T21:23:56.043Z,23.02
2022-12-19T21:26:26.025Z,23.00
2022-12-19T21:28:57.819Z,22.97
2022-12-19T21:31:29.805Z,22.95
2022-12-19T21:34:00.404Z,22.93
2022-12-19T21:36:30.769Z,22.92
2022-12-19T21:39:01.913Z,22.90
2022-12-19T21:41:31.667Z,22.89
2022-12-19T21:44:00.703Z,22.87
2022-12-19T21:46:35.705Z,22.85
2022-12-19T21:49:03.901Z,22.83
2022-12-19T21:51:32.760Z,22.80
2022-12-19T21:54:04.104Z,22.78
2022-12-19T21:56:35.645Z,22.77
2022-12-19T21:59:07.828Z,22.75
2022-12-19T22:01:36.335Z,22.73
2022-12-19T22:04:17.994Z,22.71
2022-12-19T22:06:47.522Z,22.70
2022-12-19T22:09:20.025Z,22.68
2022-12-19T22:11:48.753Z,22.69
2022-12-19T22:14:17.888Z,22.72
2022-12-19T22:16:46.330Z,22.78
2022-12-19T22:19:18.110Z,22.84
2022-12-19T22:21:47.481Z,22.89
2022-12-19T22:24:17.383Z,22.92
2022-12-19T22:26:46.008Z,22.96
2022-12-19T22:29:16.437Z,23.00
2022-12-19T22:31:46.204Z,23.03
2022-12-19T22:34:18.639Z,23.04
2022-12-19T22:36:48.908Z,23.06
2022-12-19T22:39:19.782Z,23.08
2022-12-19T22:41:48.038Z,23.09
2022-12-19T22:44:23.501Z,23.09
2022-12-19T22:46:52.507Z,23.08
2022-12-19T22:49:21.007Z,23.08
2022-12-19T22:51:50.038Z,23.07
2022-12-19T22:54:18.242Z,23.05
2022-12-19T22:56:50.120Z,23.04
2022-12-19T22:59:18.385Z,23.02
2022-12-19T23:01:46.661Z,23.01
2022-12-19T23:04:16.048Z,22.99
2022-12-19T23:06:44.685Z,22.98
2022-12-19T23:09:17.322Z,22.95
2022-12-19T23:11:49.226Z,22.93
2022-12-19T23:14:19.824Z,22.92
2022-12-19T23:16:48.659Z,22.90
2022-12-19T23:19:18.474Z,22.89
2022-12-19T23:21:46.814Z,22.87
2022-12-19T23:24:15.181Z,22.85
2022-12-19T23:26:43.374Z,22.83
2022-12-19T23:29:15.319Z,22.81
2022-12-19T23:31:46.659Z,22.80
2022-12-19T23:34:16.577Z,22.77
2022-12-19T23:37:10.300Z,22.74
2022-12-19T23:39:33.819Z,22.72
2022-12-19T23:42:02.178Z,22.71
2022-12-19T23:44:30.605Z,22.70
2022-12-19T23:47:02.942Z,22.67
2022-12-19T23:49:33.956Z,22.66
2022-12-19T23:52:02.262Z,22.64
2022-12-19T23:54:30.454Z,22.63
2022-12-19T23:56:58.726Z,22.61
2022-12-19T23:59:26.907Z,22.59
